Time;durP1;ratioP1;P1;durP2;ratioP2;P2;SDS_P1;SDS_P2;PMS_P1;PMS_P2;Temp;Humidity;BMP_temperature;BMP_pressure;BME280_temperature;BME280_humidity;BME280_pressure;Samples;Min_cycle;Max_cycle;Signal;HPM_P1;HPM_P2
2023/01/22 00:01:35;;;;;;;;;;;;;;;;;;6230078;28;19909;-83
2023/01/22 00:04:36;;;;;;;;;;;;;;;;;;6230551;28;19905;-82
2023/01/22 00:07:36;;;;;;;;;;;;;;;;;;6230914;28;19912;-82
2023/01/22 00:10:36;;;;;;;;;;;;;;;;;;6223554;28;19925;-82
2023/01/22 00:13:36;;;;;;;;;;;;;;;;;;6224164;28;19916;-83
2023/01/22 00:16:38;;;;;;;;;;;;;;;;;;6224152;28;19936;-83
2023/01/22 00:19:38;;;;;;;;;;;;;;;;;;6220744;28;19909;-83
2023/01/22 00:22:38;;;;;;;;;;;;;;;;;;6230256;28;19967;-83
2023/01/22 00:25:38;;;;;;;;;;;;;;;;;;6221356;28;19909;-83
2023/01/22 00:28:40;;;;;;;;;;;;;;;;;;6218079;28;19913;-83
2023/01/22 00:31:40;;;;;;;;;;;;;;;;;;6221881;28;19909;-83
2023/01/22 00:34:40;;;;;;;;;;;;;;;;;;6220799;28;19912;-83
2023/01/22 00:37:40;;;;;;;;;;;;;;;;;;6218705;28;19910;-83
2023/01/22 00:40:40;;;;;;;;;;;;;;;;;;6217867;28;19913;-83
2023/01/22 00:43:41;;;;;;;;;;;;;;;;;;6219064;28;20017;-83
2023/01/22 00:46:41;;;;;;;;;;;;;;;;;;6219070;28;19905;-83
2023/01/22 00:49:41;;;;;;;;;;;;;;;;;;6222727;28;19910;-83
2023/01/22 00:52:41;;;;;;;;;;;;;;;;;;6221495;28;20277;-83
2023/01/22 00:55:41;;;;;;;;;;;;;;;;;;6221912;28;19909;-83
2023/01/22 00:58:41;;;;;;;;;;;;;;;;;;6223225;28;19955;-83
2023/01/22 01:01:41;;;;;;;;;;;;;;;;;;6221471;28;20349;-82
2023/01/22 01:04:41;;;;;;;;;;;;;;;;;;6221277;28;19910;-82
2023/01/22 01:07:41;;;;;;;;;;;;;;;;;;6223036;28;20378;-82
2023/01/22 01:10:42;;;;;;;;;;;;;;;;;;6222108;28;20284;-82
2023/01/22 01:13:42;;;;;;;;;;;;;;;;;;6221673;28;19913;-82
2023/01/22 01:16:42;;;;;;;;;;;;;;;;;;6223313;28;19915;-82
2023/01/22 01:19:42;;;;;;;;;;;;;;;;;;6221561;28;19909;-82
2023/01/22 01:22:42;;;;;;;;;;;;;;;;;;6221536;28;19905;-82
2023/01/22 01:25:42;;;;;;;;;;;;;;;;;;6223807;28;19910;-82
2023/01/22 01:28:44;;;;;;;;;;;;;;;;;;6220586;28;19909;-83
2023/01/22 01:31:44;;;;;;;;;;;;;;;;;;6220057;28;19910;-83
2023/01/22 01:34:46;;;;;;;;;;;;;;;;;;6223511;28;19913;-82
2023/01/22 01:37:46;;;;;;;;;;;;;;;;;;6215187;28;20067;-82
2023/01/22 01:40:46;;;;;;;;;;;;;;;;;;6221233;28;19909;-83
2023/01/22 01:43:47;;;;;;;;;;;;;;;;;;6213308;28;20300;-83
2023/01/22 01:46:47;;;;;;;;;;;;;;;;;;6221476;28;19905;-84
2023/01/22 01:49:47;;;;;;;;;;;;;;;;;;6220663;28;19963;-83
2023/01/22 01:52:47;;;;;;;;;;;;;;;;;;6223739;28;20353;-83
2023/01/22 01:55:47;;;;;;;;;;;;;;;;;;6223817;28;19914;-82
2023/01/22 01:58:47;;;;;;;;;;;;;;;;;;6225498;28;19906;-82
2023/01/22 02:01:47;;;;;;;;;;;;;;;;;;6225992;28;19910;-83
2023/01/22 02:04:47;;;;;;;;;;;;;;;;;;6223588;28;19909;-83
2023/01/22 02:07:47;;;;;;;;;;;;;;;;;;6226207;28;20326;-83
2023/01/22 02:10:47;;;;;;;;;;;;;;;;;;6222816;28;20004;-82
2023/01/22 02:13:48;;;;;;;;;;;;;;;;;;6216890;28;20000;-82
2023/01/22 02:16:48;;;;;;;;;;;;;;;;;;6221281;28;19914;-82
2023/01/22 02:19:48;;;;;;;;;;;;;;;;;;6222045;28;20312;-82
2023/01/22 02:22:48;;;;;;;;;;;;;;;;;;6221619;28;20369;-82
2023/01/22 02:25:48;;;;;;;;;;;;;;;;;;6222549;28;19992;-82
2023/01/22 02:28:48;;;;;;;;;;;;;;;;;;6221156;28;19909;-82
2023/01/22 02:31:49;;;;;;;;;;;;;;;;;;6223813;28;19910;-82
2023/01/22 02:34:49;;;;;;;;;;;;;;;;;;6225899;28;20328;-82
2023/01/22 02:37:50;;;;;;;;;;;;;;;;;;6227367;28;20365;-82
2023/01/22 02:40:50;;;;;;;;;;;;;;;;;;6224023;28;19936;-82
2023/01/22 02:43:50;;;;;;;;;;;;;;;;;;6223982;28;19905;-82
2023/01/22 02:46:50;;;;;;;;;;;;;;;;;;6242309;28;20366;-82
2023/01/22 02:49:50;;;;;;;;;;;;;;;;;;6216217;28;20307;-82
2023/01/22 02:52:51;;;;;;;;;;;;;;;;;;6222296;28;19909;-82
2023/01/22 02:55:51;;;;;;;;;;;;;;;;;;6224040;28;20365;-82
2023/01/22 02:58:51;;;;;;;;;;;;;;;;;;6221944;28;19909;-82
2023/01/22 03:01:51;;;;;;;;;;;;;;;;;;6223232;28;19917;-82
2023/01/22 03:05:00;;;;;;;;;;;;;;;;;;6221021;28;19906;-82
2023/01/22 03:08:00;;;;;;;;;;;;;;;;;;6223780;28;19909;-82
2023/01/22 03:11:01;;;;;;;;;;;;;;;;;;6223267;28;19925;-82
2023/01/22 03:23:57;;;;;;;;;;;;;;;;;;6218941;28;19905;-82
2023/01/22 03:26:57;;;;;;;;;;;;;;;;;;6222335;28;19967;-82
2023/01/22 03:29:58;;;;;;;;;;;;;;;;;;6223421;28;19905;-82
2023/01/22 03:32:58;;;;;;;;;;;;;;;;;;6221026;28;19985;-82
2023/01/22 03:35:58;;;;;;;;;;;;;;;;;;6221907;28;20365;-82
2023/01/22 03:38:58;;;;;;;;;;;;;;;;;;6221392;28;20285;-82
2023/01/22 03:41:59;;;;;;;;;;;;;;;;;;6219294;28;19910;-82
2023/01/22 03:44:59;;;;;;;;;;;;;;;;;;6236209;28;19913;-82
2023/01/22 03:47:59;;;;;;;;;;;;;;;;;;6221715;28;19909;-82
2023/01/22 03:50:59;;;;;;;;;;;;;;;;;;6224126;28;19909;-82
2023/01/22 03:53:59;;;;;;;;;;;;;;;;;;6221817;28;19955;-81
2023/01/22 03:56:59;;;;;;;;;;;;;;;;;;6225998;28;20062;-81
2023/01/22 04:00:00;;;;;;;;;;;;;;;;;;6238705;28;19948;-81
2023/01/22 04:03:01;;;;;;;;;;;;;;;;;;6219120;28;19910;-81
2023/01/22 04:06:01;;;;;;;;;;;;;;;;;;6225159;28;19916;-82
2023/01/22 04:09:01;;;;;;;;;;;;;;;;;;6221214;28;19996;-83
2023/01/22 04:12:01;;;;;;;;;;;;;;;;;;6222396;28;19925;-82
2023/01/22 04:15:01;;;;;;;;;;;;;;;;;;6221731;28;20366;-81
2023/01/22 04:18:01;;;;;;;;;;;;;;;;;;6222217;28;19964;-82
2023/01/22 04:21:01;;;;;;;;;;;;;;;;;;6222015;28;19940;-82
2023/01/22 04:24:01;;;;;;;;;;;;;;;;;;6219660;28;19913;-82
2023/01/22 04:27:01;;;;;;;;;;;;;;;;;;6221716;28;19905;-82
2023/01/22 04:30:01;;;;;;;;;;;;;;;;;;6220765;28;19948;-82
2023/01/22 04:33:01;;;;;;;;;;;;;;;;;;6221624;28;20269;-82
2023/01/22 04:36:02;;;;;;;;;;;;;;;;;;6222354;28;20389;-82
2023/01/22 04:39:02;;;;;;;;;;;;;;;;;;6215324;28;19906;-82
2023/01/22 04:42:02;;;;;;;;;;;;;;;;;;6221066;28;19947;-82
2023/01/22 04:45:02;;;;;;;;;;;;;;;;;;6222074;28;20352;-82
2023/01/22 04:48:02;;;;;;;;;;;;;;;;;;6220959;28;19905;-82
2023/01/22 04:51:02;;;;;;;;;;;;;;;;;;6221211;28;19906;-82
2023/01/22 04:54:02;;;;;;;;;;;;;;;;;;6222561;28;20417;-81
2023/01/22 04:57:02;;;;;;;;;;;;;;;;;;6221376;28;20334;-81
2023/01/22 05:00:03;;;;;;;;;;;;;;;;;;6210822;28;20416;-82
2023/01/22 05:03:03;;;;;;;;;;;;;;;;;;6226933;28;19960;-82
2023/01/22 05:06:03;;;;;;;;;;;;;;;;;;6220606;28;19905;-82
2023/01/22 05:09:03;;;;;;;;;;;;;;;;;;6213237;28;20358;-82
2023/01/22 05:12:03;;;;;;;;;;;;;;;;;;6223805;28;20373;-82
2023/01/22 05:15:03;;;;;;;;;;;;;;;;;;6221050;28;20350;-82
2023/01/22 05:18:03;;;;;;;;;;;;;;;;;;6217662;28;20000;-82
2023/01/22 05:21:04;;;;;;;;;;;;;;;;;;6219284;28;19912;-82
2023/01/22 05:24:04;;;;;;;;;;;;;;;;;;6235316;28;19956;-82
2023/01/22 05:27:04;;;;;;;;;;;;;;;;;;6222510;28;19909;-82
2023/01/22 05:30:04;;;;;;;;;;;;;;;;;;6220504;28;19917;-82
2023/01/22 05:33:04;;;;;;;;;;;;;;;;;;6223366;28;20395;-82
2023/01/22 05:36:04;;;;;;;;;;;;;;;;;;6240430;28;19968;-82
2023/01/22 05:39:04;;;;;;;;;;;;;;;;;;6225275;28;19923;-82
2023/01/22 05:42:04;;;;;;;;;;;;;;;;;;6226356;28;19914;-83
2023/01/22 05:45:05;;;;;;;;;;;;;;;;;;6224895;28;20408;-82
2023/01/22 05:48:05;;;;;;;;;;;;;;;;;;6215781;28;19992;-82
2023/01/22 05:51:05;;;;;;;;;;;;;;;;;;6212569;28;19913;-82
2023/01/22 05:54:05;;;;;;;;;;;;;;;;;;6219022;28;20300;-82
2023/01/22 05:57:05;;;;;;;;;;;;;;;;;;6218783;28;19966;-82
2023/01/22 06:00:07;;;;;;;;;;;;;;;;;;6226682;28;19909;-82
2023/01/22 06:03:07;;;;;;;;;;;;;;;;;;6210176;28;19905;-82
2023/01/22 06:06:07;;;;;;;;;;;;;;;;;;6218244;28;19917;-82
2023/01/22 06:09:07;;;;;;;;;;;;;;;;;;6211917;28;19906;-82
2023/01/22 06:12:07;;;;;;;;;;;;;;;;;;6224873;28;20008;-82
2023/01/22 06:15:07;;;;;;;;;;;;;;;;;;6212214;28;19909;-82
2023/01/22 06:18:09;;;;;;;;;;;;;;;;;;6224582;28;20377;-82
2023/01/22 06:21:09;;;;;;;;;;;;;;;;;;6221266;28;19913;-82
2023/01/22 06:24:09;;;;;;;;;;;;;;;;;;6221076;28;19909;-82
2023/01/22 06:27:09;;;;;;;;;;;;;;;;;;6221835;28;19967;-82
2023/01/22 06:30:10;;;;;;;;;;;;;;;;;;6223665;28;19955;-82
2023/01/22 06:33:10;;;;;;;;;;;;;;;;;;6228184;28;19905;-82
2023/01/22 06:36:10;;;;;;;;;;;;;;;;;;6223870;28;19909;-82
2023/01/22 06:39:10;;;;;;;;;;;;;;;;;;6229066;28;19912;-82
2023/01/22 06:42:10;;;;;;;;;;;;;;;;;;6224833;28;20335;-82
2023/01/22 06:45:10;;;;;;;;;;;;;;;;;;6225085;28;20349;-82
2023/01/22 06:48:10;;;;;;;;;;;;;;;;;;6223339;28;20339;-82
2023/01/22 06:51:10;;;;;;;;;;;;;;;;;;6224229;28;20309;-82
2023/01/22 06:54:11;;;;;;;;;;;;;;;;;;6221212;28;20675;-82
2023/01/22 06:57:11;;;;;;;;;;;;;;;;;;6218907;28;19913;-82
2023/01/22 07:00:11;;;;;;;;;;;;;;;;;;6220085;28;19916;-82
2023/01/22 07:03:12;;;;;;;;;;;;;;;;;;6221082;28;19909;-82
2023/01/22 07:06:12;;;;;;;;;;;;;;;;;;6237372;28;20284;-82
2023/01/22 07:09:12;;;;;;;;;;;;;;;;;;6223163;28;19934;-82
2023/01/22 07:12:12;;;;;;;;;;;;;;;;;;6217527;28;19925;-82
2023/01/22 07:15:12;;;;;;;;;;;;;;;;;;6230609;28;19905;-82
2023/01/22 07:18:13;;;;;;;;;;;;;;;;;;6208685;28;19914;-82
2023/01/22 07:21:13;;;;;;;;;;;;;;;;;;6220947;28;19913;-82
2023/01/22 07:24:13;;;;;;;;;;;;;;;;;;6213517;28;19910;-82
2023/01/22 07:27:13;;;;;;;;;;;;;;;;;;6211864;28;19940;-82
2023/01/22 07:30:13;;;;;;;;;;;;;;;;;;6217801;28;19910;-82
2023/01/22 07:33:14;;;;;;;;;;;;;;;;;;6221267;28;20004;-82
2023/01/22 07:36:14;;;;;;;;;;;;;;;;;;6211591;28;19921;-82
2023/01/22 07:39:14;;;;;;;;;;;;;;;;;;6220511;28;20301;-82
2023/01/22 07:42:14;;;;;;;;;;;;;;;;;;6212353;28;20424;-82
2023/01/22 07:45:14;;;;;;;;;;;;;;;;;;6204602;28;20244;-81
2023/01/22 07:48:14;;;;;;;;;;;;;;;;;;6213368;28;19922;-81
2023/01/22 07:51:14;;;;;;;;;;;;;;;;;;6205671;28;19918;-81
2023/01/22 07:54:14;;;;;;;;;;;;;;;;;;6207309;28;19952;-81
2023/01/22 07:57:15;;;;;;;;;;;;;;;;;;6212142;28;19917;-82
2023/01/22 08:00:15;;;;;;;;;;;;;;;;;;6230483;28;19936;-82
2023/01/22 08:03:15;;;;;;;;;;;;;;;;;;6213956;28;19910;-82
2023/01/22 08:06:16;;;;;;;;;;;;;;;;;;6226076;28;20292;-82
2023/01/22 08:09:23;;;;;;;;;;;;;;;;;;6234897;28;19913;-82
2023/01/22 08:12:23;;;;;;;;;;;;;;;;;;6245734;28;19936;-82
2023/01/22 08:15:23;;;;;;;;;;;;;;;;;;6229811;28;19916;-82
2023/01/22 08:18:23;;;;;;;;;;;;;;;;;;6248364;28;20296;-82
2023/01/22 08:21:23;;;;;;;;;;;;;;;;;;6243227;28;20380;-82
2023/01/22 08:24:24;;;;;;;;;;;;;;;;;;6241253;28;19909;-82
2023/01/22 08:27:24;;;;;;;;;;;;;;;;;;6231686;28;20012;-82
2023/01/22 08:30:24;;;;;;;;;;;;;;;;;;6227367;28;19963;-82
2023/01/22 08:33:24;;;;;;;;;;;;;;;;;;6222929;28;20333;-82
2023/01/22 08:36:24;;;;;;;;;;;;;;;;;;6222358;28;19913;-82
2023/01/22 08:39:24;;;;;;;;;;;;;;;;;;6231810;28;20383;-82
2023/01/22 08:42:24;;;;;;;;;;;;;;;;;;6237658;28;19943;-82
2023/01/22 08:45:24;;;;;;;;;;;;;;;;;;6234856;28;20336;-82
2023/01/22 08:48:24;;;;;;;;;;;;;;;;;;6226065;28;20324;-82
2023/01/22 08:51:25;;;;;;;;;;;;;;;;;;6235119;28;19913;-81
2023/01/22 08:54:25;;;;;;;;;;;;;;;;;;6228859;28;19920;-81
2023/01/22 08:57:25;;;;;;;;;;;;;;;;;;6238705;28;19927;-81
2023/01/22 09:00:26;;;;;;;;;;;;;;;;;;6234559;28;19908;-82
2023/01/22 09:03:26;;;;;;;;;;;;;;;;;;6233680;28;20340;-81
2023/01/22 09:06:26;;;;;;;;;;;;;;;;;;6227216;28;20448;-81
2023/01/22 09:09:26;;;;;;;;;;;;;;;;;;6222504;28;20284;-81
2023/01/22 09:12:26;;;;;;;;;;;;;;;;;;6232740;28;19920;-81
2023/01/22 09:15:26;;;;;;;;;;;;;;;;;;6225923;28;19913;-81
2023/01/22 09:18:27;;;;;;;;;;;;;;;;;;6229947;28;20004;-80
2023/01/22 09:21:27;;;;;;;;;;;;;;;;;;6228159;28;19934;-80
2023/01/22 09:24:27;;;;;;;;;;;;;;;;;;6225700;28;19955;-80
2023/01/22 09:27:27;;;;;;;;;;;;;;;;;;6217828;28;19912;-79
2023/01/22 09:30:28;;;;;;;;;;;;;;;;;;6231663;28;19921;-79
2023/01/22 09:33:28;;;;;;;;;;;;;;;;;;6239166;28;19953;-79
2023/01/22 09:36:29;;;;;;;;;;;;;;;;;;6231848;28;19913;-79
2023/01/22 09:39:29;;;;;;;;;;;;;;;;;;6234583;28;19913;-79
2023/01/22 09:42:29;;;;;;;;;;;;;;;;;;6239814;28;19905;-80
2023/01/22 09:45:29;;;;;;;;;;;;;;;;;;6245689;28;19905;-79
2023/01/22 09:48:29;;;;;;;;;;;;;;;;;;6239622;28;19909;-79
2023/01/22 09:51:29;;;;;;;;;;;;;;;;;;6227359;28;19944;-79
2023/01/22 09:54:29;;;;;;;;;;;;;;;;;;6241366;28;19904;-79
2023/01/22 09:57:29;;;;;;;;;;;;;;;;;;6239122;28;20365;-79
2023/01/22 10:00:29;;;;;;;;;;;;;;;;;;6242834;28;19905;-79
2023/01/22 10:03:29;;;;;;;;;;;;;;;;;;6225207;28;19988;-78
2023/01/22 10:06:30;;;;;;;;;;;;;;;;;;6221320;28;19905;-78
2023/01/22 10:09:30;;;;;;;;;;;;;;;;;;6231827;28;19905;-78
2023/01/22 10:12:30;;;;;;;;;;;;;;;;;;6242678;28;20277;-78
2023/01/22 10:15:30;;;;;;;;;;;;;;;;;;6250116;28;19912;-78
2023/01/22 10:18:30;;;;;;;;;;;;;;;;;;6219797;28;19914;-78
2023/01/22 10:21:31;;;;;;;;;;;;;;;;;;6229381;28;19933;-78
2023/01/22 10:24:31;;;;;;;;;;;;;;;;;;6228797;28;19912;-78
2023/01/22 10:27:31;;;;;;;;;;;;;;;;;;6225742;28;19936;-78
2023/01/22 10:30:31;;;;;;;;;;;;;;;;;;6231532;28;20322;-78
2023/01/22 10:33:31;;;;;;;;;;;;;;;;;;6245641;28;19986;-77
2023/01/22 10:36:32;;;;;;;;;;;;;;;;;;6232007;28;19998;-77
2023/01/22 10:39:32;;;;;;;;;;;;;;;;;;6228746;28;19960;-77
2023/01/22 10:42:32;;;;;;;;;;;;;;;;;;6241440;28;19909;-77
2023/01/22 10:45:32;;;;;;;;;;;;;;;;;;6232974;28;19909;-77
2023/01/22 10:48:32;;;;;;;;;;;;;;;;;;6228908;28;19913;-77
2023/01/22 10:51:32;;;;;;;;;;;;;;;;;;6227555;28;19910;-77
2023/01/22 10:54:33;;;;;;;;;;;;;;;;;;6226050;28;20372;-77
2023/01/22 10:57:33;;;;;;;;;;;;;;;;;;6233656;28;19913;-77
2023/01/22 11:00:33;;;;;;;;;;;;;;;;;;6236521;28;19951;-78
2023/01/22 11:03:33;;;;;;;;;;;;;;;;;;6237576;28;19913;-77
2023/01/22 11:06:33;;;;;;;;;;;;;;;;;;6228814;28;19905;-77
2023/01/22 11:09:34;;;;;;;;;;;;;;;;;;6225680;28;19905;-77
2023/01/22 11:12:34;;;;;;;;;;;;;;;;;;6226042;28;19917;-78
2023/01/22 11:15:34;;;;;;;;;;;;;;;;;;6237390;28;19910;-78
2023/01/22 11:18:34;;;;;;;;;;;;;;;;;;6221868;28;19953;-78
2023/01/22 11:21:34;;;;;;;;;;;;;;;;;;6226547;28;19905;-78
2023/01/22 11:24:34;;;;;;;;;;;;;;;;;;6220887;28;19932;-78
2023/01/22 11:27:34;;;;;;;;;;;;;;;;;;6221303;28;19958;-78
2023/01/22 11:30:34;;;;;;;;;;;;;;;;;;6236195;28;19909;-78
2023/01/22 11:33:34;;;;;;;;;;;;;;;;;;6241470;28;19913;-78
2023/01/22 11:36:34;;;;;;;;;;;;;;;;;;6216123;28;19978;-78
2023/01/22 11:39:35;;;;;;;;;;;;;;;;;;6229535;28;20377;-79
2023/01/22 11:42:35;;;;;;;;;;;;;;;;;;6230299;28;20102;-80
2023/01/22 11:45:35;;;;;;;;;;;;;;;;;;6221598;28;19923;-80
2023/01/22 11:48:35;;;;;;;;;;;;;;;;;;6225625;28;19979;-79
2023/01/22 11:51:35;;;;;;;;;;;;;;;;;;6229918;28;20431;-79
2023/01/22 11:54:35;;;;;;;;;;;;;;;;;;6230350;28;19976;-79
2023/01/22 11:57:38;;;;;;;;;;;;;;;;;;6229447;28;19928;-80
2023/01/22 12:00:38;;;;;;;;;;;;;;;;;;6234501;28;19940;-80
2023/01/22 12:03:38;;;;;;;;;;;;;;;;;;6221782;28;19913;-80
2023/01/22 12:06:38;;;;;;;;;;;;;;;;;;6225957;28;19923;-80
2023/01/22 12:09:39;;;;;;;;;;;;;;;;;;6240558;28;19932;-80
2023/01/22 12:12:40;;;;;;;;;;;;;;;;;;6244173;28;20393;-81
2023/01/22 12:15:40;;;;;;;;;;;;;;;;;;6228204;28;20360;-81
2023/01/22 12:18:40;;;;;;;;;;;;;;;;;;6230583;28;20296;-81
2023/01/22 12:21:40;;;;;;;;;;;;;;;;;;6241519;28;20277;-81
2023/01/22 12:24:41;;;;;;;;;;;;;;;;;;6226744;28;19913;-81
2023/01/22 12:27:41;;;;;;;;;;;;;;;;;;6242726;28;19948;-82
2023/01/22 12:30:41;;;;;;;;;;;;;;;;;;6227733;28;19909;-83
2023/01/22 12:33:42;;;;;;;;;;;;;;;;;;6225998;28;19909;-83
2023/01/22 12:36:42;;;;;;;;;;;;;;;;;;6241470;28;20333;-84
2023/01/22 12:39:42;;;;;;;;;;;;;;;;;;6227077;28;19897;-85
2023/01/22 12:42:43;;;;;;;;;;;;;;;;;;6223893;28;20003;-84
2023/01/22 12:45:43;;;;;;;;;;;;;;;;;;6221600;28;19959;-83
2023/01/22 12:48:43;;;;;;;;;;;;;;;;;;6238024;28;19913;-83
2023/01/22 12:51:43;;;;;;;;;;;;;;;;;;6238831;28;19910;-83
2023/01/22 12:54:43;;;;;;;;;;;;;;;;;;6226151;28;19940;-83
2023/01/22 12:57:43;;;;;;;;;;;;;;;;;;6222499;28;20446;-83
2023/01/22 13:00:43;;;;;;;;;;;;;;;;;;6224928;28;19909;-83
2023/01/22 13:03:43;;;;;;;;;;;;;;;;;;6228703;28;20300;-83
2023/01/22 13:06:45;;;;;;;;;;;;;;;;;;6225078;28;20369;-84
2023/01/22 13:09:45;;;;;;;;;;;;;;;;;;6225450;28;19913;-83
2023/01/22 13:12:46;;;;;;;;;;;;;;;;;;6222909;28;19924;-83
2023/01/22 13:15:46;;;;;;;;;;;;;;;;;;6235602;28;20365;-84
2023/01/22 13:18:46;;;;;;;;;;;;;;;;;;6226380;28;20357;-84
2023/01/22 13:21:47;;;;;;;;;;;;;;;;;;6219960;28;20007;-85
2023/01/22 13:24:47;;;;;;;;;;;;;;;;;;6231696;28;19909;-85
2023/01/22 13:27:47;;;;;;;;;;;;;;;;;;6224408;28;19913;-84
2023/01/22 13:32:44;;;;;;;0.82;0.82;;;;;;;;;;6354228;27;20406;-84
2023/01/22 13:35:45;;;;;;;5.13;2.73;;;;;;;;;;6322032;28;20028;-84
2023/01/22 13:38:50;;;;;;;3.10;1.97;;;;;;;;;;6325097;28;20031;-84
2023/01/22 13:41:51;;;;;;;2.70;2.53;;;;;;;;;;6321434;28;20081;-84
2023/01/22 13:44:51;;;;;;;6.25;3.47;;;;;;;;;;6325205;28;20028;-83
2023/01/22 13:47:56;;;;;;;1.63;1.53;;;;;;;;;;6331602;28;20081;-84
2023/01/22 13:51:02;;;;;;;2.88;2.67;;;;;;;;;;6338443;28;20484;-84
2023/01/22 13:54:03;;;;;;;2.38;2.25;;;;;;;;;;6325015;28;20028;-84
2023/01/22 13:57:04;;;;;;;3.92;3.63;;;;;;;;;;6343767;28;20022;-83
2023/01/22 14:00:05;;;;;;;4.97;3.13;;;;;;;;;;6342712;28;20467;-83
2023/01/22 14:03:19;;;;;;;0.77;0.77;;;;;;;;;;6317635;28;20062;-83
2023/01/22 14:06:19;;;;;;;9.32;3.45;;;;;;;;;;6331755;28;20028;-84
2023/01/22 14:09:26;;;;;;;3.30;2.83;;;;;;;;;;6321853;28;20034;-83
2023/01/22 14:12:29;;;;;;;5.32;4.75;;;;;;;;;;6342540;28;20019;-83
2023/01/22 14:15:29;;;;;;;4.35;3.67;;;;;;;;;;6335977;28;20511;-84
2023/01/22 14:18:29;;;;;;;3.43;3.23;;;;;;;;;;6341745;28;20047;-85
2023/01/22 14:21:31;;;;;;;3.30;3.10;;;;;;;;;;6326206;28;20028;-85
2023/01/22 14:24:31;;;;;;;3.47;2.47;;;;;;;;;;6323165;28;20447;-85
2023/01/22 14:27:39;;;;;;;2.20;1.87;;;;;;;;;;6319339;28;20066;-85
2023/01/22 14:30:40;;;;;;;1.92;1.85;;;;;;;;;;6312723;28;20094;-85
2023/01/22 14:33:40;;;;;;;0.43;0.43;;;;;;;;;;6293257;28;20468;-86
2023/01/22 14:36:43;;;;;;;0.97;0.97;;;;;;;;;;6299902;28;20073;-86
2023/01/22 14:39:43;;;;;;;4.55;4.22;;;;;;;;;;6296994;28;20050;-85
2023/01/22 14:42:45;;;;;;;2.33;2.13;;;;;;;;;;6290916;28;20012;-85
2023/01/22 14:45:45;;;;;;;3.05;2.85;;;;;;;;;;6282252;28;20098;-85
2023/01/22 14:48:46;;;;;;;1.13;1.13;;;;;;;;;;6286214;28;20017;-86
2023/01/22 14:51:46;;;;;;;0.40;0.40;;;;;;;;;;6282578;28;20035;-86
2023/01/22 14:54:46;;;;;;;2.20;2.10;;;;;;;;;;6282126;28;20017;-86
2023/01/22 14:57:46;;;;;;;0.43;0.43;;;;;;;;;;6299780;28;20017;-86
2023/01/22 15:00:47;;;;;;;0.20;0.20;;;;;;;;;;6279039;28;20012;-86
2023/01/22 15:03:47;;;;;;;0.47;0.47;;;;;;;;;;6273290;28;20238;-86
2023/01/22 15:06:47;;;;;;;0.30;0.30;;;;;;;;;;6295400;28;20027;-85
2023/01/22 15:09:48;;;;;;;1.70;1.60;;;;;;;;;;6294349;28;20154;-85
2023/01/22 15:12:49;;;;;;;0.93;0.93;;;;;;;;;;6280932;28;20016;-86
2023/01/22 15:15:49;;;;;;;2.55;2.40;;;;;;;;;;6281549;28;20019;-86
2023/01/22 15:18:52;;;;;;;4.23;3.93;;;;;;;;;;6270620;28;20466;-86
2023/01/22 15:21:52;;;;;;;1.73;1.63;;;;;;;;;;6272480;28;20060;-86
2023/01/22 15:24:52;;;;;;;5.97;5.50;;;;;;;;;;6292762;28;20037;-86
2023/01/22 15:27:53;;;;;;;4.47;2.88;;;;;;;;;;6267912;28;20054;-86
2023/01/22 15:30:55;;;;;;;6.03;3.33;;;;;;;;;;6282849;28;20064;-86
2023/01/22 15:33:56;;;;;;;0.90;0.90;;;;;;;;;;6289696;28;20441;-86
2023/01/22 15:36:56;;;;;;;5.65;3.22;;;;;;;;;;6268682;28;20029;-85
2023/01/22 15:39:57;;;;;;;3.47;3.20;;;;;;;;;;6265793;28;20050;-85
2023/01/22 15:42:57;;;;;;;2.67;2.23;;;;;;;;;;6296695;28;20025;-85
2023/01/22 15:45:57;;;;;;;0.70;0.70;;;;;;;;;;6296040;28;20036;-85
2023/01/22 15:48:58;;;;;;;2.67;2.53;;;;;;;;;;6277528;28;20025;-84
2023/01/22 15:51:58;;;;;;;3.20;2.70;;;;;;;;;;6297826;28;20342;-84
2023/01/22 15:54:59;;;;;;;1.83;1.73;;;;;;;;;;6270063;28;20622;-84
2023/01/22 15:57:59;;;;;;;1.10;1.07;;;;;;;;;;6280471;28;20027;-84
2023/01/22 16:01:00;;;;;;;1.87;1.77;;;;;;;;;;6292045;28;20028;-84
2023/01/22 16:04:01;;;;;;;7.07;6.00;;;;;;;;;;6296250;28;20028;-84
2023/01/22 16:07:02;;;;;;;2.47;2.38;;;;;;;;;;6278724;28;20024;-84
2023/01/22 16:10:02;;;;;;;1.67;1.67;;;;;;;;;;6269042;28;20025;-84
2023/01/22 16:13:02;;;;;;;5.50;2.73;;;;;;;;;;6290414;28;20031;-83
2023/01/22 16:16:05;;;;;;;3.60;3.40;;;;;;;;;;6271516;28;20020;-83
2023/01/22 16:19:06;;;;;;;2.28;2.17;;;;;;;;;;6294088;28;20398;-82
2023/01/22 16:22:06;;;;;;;2.78;2.60;;;;;;;;;;6275630;28;20032;-82
2023/01/22 16:25:06;;;;;;;5.60;3.80;;;;;;;;;;6288149;28;20411;-82
2023/01/22 16:28:06;;;;;;;0.33;0.33;;;;;;;;;;6276173;28;20034;-82
2023/01/22 16:31:09;;;;;;;3.33;2.63;;;;;;;;;;6278170;28;20057;-83
2023/01/22 16:34:10;;;;;;;2.30;1.15;;;;;;;;;;6271474;28;20025;-82
2023/01/22 16:37:11;;;;;;;10.45;4.53;;;;;;;;;;6262340;28;20047;-82
2023/01/22 16:40:12;;;;;;;1.85;1.75;;;;;;;;;;6276702;28;20057;-82
2023/01/22 16:43:12;;;;;;;0.73;0.73;;;;;;;;;;6262693;28;20036;-81
2023/01/22 16:46:13;;;;;;;9.65;2.38;;;;;;;;;;6272164;28;20062;-82
2023/01/22 16:49:15;;;;;;;1.52;1.48;;;;;;;;;;6256910;28;20427;-83
2023/01/22 16:52:15;;;;;;;;;;;;;;;;;;6258930;28;20055;-83
2023/01/22 16:55:15;;;;;;;2.30;2.20;;;;;;;;;;6289030;28;19914;-82
2023/01/22 16:58:15;;;;;;;1.40;1.33;;;;;;;;;;6279153;28;20025;-83
2023/01/22 17:01:16;;;;;;;3.85;3.65;;;;;;;;;;6272235;28;20033;-82
2023/01/22 17:04:16;;;;;;;1.97;1.87;;;;;;;;;;6274269;28;20481;-83
2023/01/22 17:07:16;;;;;;;4.10;3.90;;;;;;;;;;6262977;28;20024;-83
2023/01/22 17:10:16;;;;;;;5.23;4.93;;;;;;;;;;6279833;28;20104;-83
2023/01/22 17:13:17;;;;;;;2.17;2.07;;;;;;;;;;6277458;28;20522;-83
2023/01/22 17:16:18;;;;;;;2.03;1.87;;;;;;;;;;6279788;28;20045;-83
2023/01/22 17:19:18;;;;;;;4.13;3.83;;;;;;;;;;6257780;28;20049;-83
2023/01/22 17:22:18;;;;;;;6.57;6.03;;;;;;;;;;6264340;28;20028;-83
2023/01/22 17:25:18;;;;;;;1.00;1.00;;;;;;;;;;6266124;28;20028;-83
2023/01/22 17:28:20;;;;;;;2.60;2.40;;;;;;;;;;6286887;28;20067;-82
2023/01/22 17:31:21;;;;;;;5.18;4.80;;;;;;;;;;6277985;28;20036;-83
2023/01/22 17:34:22;;;;;;;1.60;1.57;;;;;;;;;;6303092;28;20111;-82
2023/01/22 17:37:22;;;;;;;8.23;5.30;;;;;;;;;;6307988;28;20327;-82
2023/01/22 17:40:24;;;;;;;3.30;3.00;;;;;;;;;;6305756;28;20039;-82
2023/01/22 17:43:24;;;;;;;10.30;8.43;;;;;;;;;;6298797;28;20050;-83
2023/01/22 17:46:27;;;;;;;1.42;0.95;;;;;;;;;;6307010;28;20422;-83
2023/01/22 17:49:28;;;;;;;1.33;1.30;;;;;;;;;;6303535;28;20028;-83
2023/01/22 17:52:28;;;;;;;14.95;5.25;;;;;;;;;;6298072;28;20486;-83
2023/01/22 17:55:29;;;;;;;9.23;3.53;;;;;;;;;;6302694;28;20021;-83
2023/01/22 17:58:29;;;;;;;5.43;4.90;;;;;;;;;;6310810;28;20027;-83
2023/01/22 18:01:31;;;;;;;3.38;3.15;;;;;;;;;;6306518;28;20091;-83
2023/01/22 18:04:33;;;;;;;1.48;1.48;;;;;;;;;;6306800;28;20040;-82
2023/01/22 18:07:34;;;;;;;0.45;0.45;;;;;;;;;;6302283;28;20503;-82
2023/01/22 18:10:36;;;;;;;1.40;1.40;;;;;;;;;;6305116;28;20028;-82
2023/01/22 18:13:37;;;;;;;3.83;3.63;;;;;;;;;;6307568;28;20423;-82
2023/01/22 18:16:38;;;;;;;4.50;1.70;;;;;;;;;;6309607;28;20028;-81
2023/01/22 18:19:38;;;;;;;3.03;2.90;;;;;;;;;;6325814;28;20020;-81
2023/01/22 18:22:38;;;;;;;3.57;3.27;;;;;;;;;;6322288;28;20303;-81
2023/01/22 18:25:39;;;;;;;1.67;1.67;;;;;;;;;;6321593;28;20157;-82
2023/01/22 18:28:40;;;;;;;3.25;3.05;;;;;;;;;;6315806;28;20024;-82
2023/01/22 18:31:40;;;;;;;3.13;3.03;;;;;;;;;;6300913;28;20083;-82
2023/01/22 18:34:41;;;;;;;2.80;1.30;;;;;;;;;;6281196;28;20036;-82
2023/01/22 18:37:41;;;;;;;8.00;4.60;;;;;;;;;;6272345;28;20032;-82
2023/01/22 18:40:41;;;;;;;3.33;3.13;;;;;;;;;;6270622;28;20502;-82
2023/01/22 18:43:45;;;;;;;0.97;0.97;;;;;;;;;;6272054;28;20023;-82
2023/01/22 18:46:47;;;;;;;6.45;5.78;;;;;;;;;;6286546;28;20036;-81
2023/01/22 18:49:48;;;;;;;1.63;1.52;;;;;;;;;;6298507;28;20032;-81
2023/01/22 18:52:48;;;;;;;2.70;2.60;;;;;;;;;;6298708;28;20499;-81
2023/01/22 18:55:48;;;;;;;1.23;1.23;;;;;;;;;;6276201;28;20521;-81
2023/01/22 18:58:48;;;;;;;2.67;2.53;;;;;;;;;;6296847;28;20004;-81
2023/01/22 19:01:50;;;;;;;8.93;2.67;;;;;;;;;;6278331;28;20021;-81
2023/01/22 19:04:51;;;;;;;3.03;2.92;;;;;;;;;;6298179;28;20025;-80
2023/01/22 19:07:52;;;;;;;2.23;1.23;;;;;;;;;;6279007;28;20044;-80
2023/01/22 19:10:52;;;;;;;3.77;3.57;;;;;;;;;;6275407;28;20031;-80
2023/01/22 19:13:53;;;;;;;0.30;0.30;;;;;;;;;;6276218;28;20120;-80
2023/01/22 19:16:53;;;;;;;3.33;2.85;;;;;;;;;;6294296;28;20021;-80
2023/01/22 19:19:53;;;;;;;3.90;2.67;;;;;;;;;;6298231;28;20444;-80
2023/01/22 19:22:54;;;;;;;1.33;1.33;;;;;;;;;;6279074;28;20024;-79
2023/01/22 19:26:01;;;;;;;3.73;3.50;;;;;;;;;;6295997;28;20035;-80
2023/01/22 19:29:03;;;;;;;1.35;1.35;;;;;;;;;;6296126;28;20048;-79
2023/01/22 19:32:04;;;;;;;3.13;2.90;;;;;;;;;;6281695;28;20119;-79
2023/01/22 19:35:05;;;;;;;2.57;2.37;;;;;;;;;;6271982;28;20028;-79
2023/01/22 19:38:05;;;;;;;1.83;1.73;;;;;;;;;;6293118;28;20012;-79
2023/01/22 19:41:05;;;;;;;0.67;0.67;;;;;;;;;;6275729;28;20023;-79
2023/01/22 19:44:06;;;;;;;10.97;2.40;;;;;;;;;;6278332;28;20024;-79
2023/01/22 19:47:07;;;;;;;1.43;1.40;;;;;;;;;;6274620;28;20025;-80
2023/01/22 19:50:07;;;;;;;2.17;2.08;;;;;;;;;;6274935;28;20029;-79